sensor_id;sensor_type;location;lat;lon;timestamp;temperature;humidity
43524;DHT22;29120;52.006;6.020;2023-02-19T00:01:14;10.90;99.90
43524;DHT22;29120;52.006;6.020;2023-02-19T00:03:40;10.80;99.90
43524;DHT22;29120;52.006;6.020;2023-02-19T00:06:07;10.80;99.90
43524;DHT22;29120;52.006;6.020;2023-02-19T00:08:32;10.80;99.90
43524;DHT22;29120;52.006;6.020;2023-02-19T00:10:59;10.80;99.90
43524;DHT22;29120;52.006;6.020;2023-02-19T00:13:24;10.80;99.90
43524;DHT22;29120;52.006;6.020;2023-02-19T00:15:50;10.80;99.90
43524;DHT22;29120;52.006;6.020;2023-02-19T00:18:15;10.80;99.90
43524;DHT22;29120;52.006;6.020;2023-02-19T00:20:41;10.80;99.90
43524;DHT22;29120;52.006;6.020;2023-02-19T00:23:06;10.80;99.90
43524;DHT22;29120;52.006;6.020;2023-02-19T00:25:34;10.80;99.90
43524;DHT22;29120;52.006;6.020;2023-02-19T00:28:00;10.70;99.90
43524;DHT22;29120;52.006;6.020;2023-02-19T00:30:25;10.70;99.90
43524;DHT22;29120;52.006;6.020;2023-02-19T00:32:51;10.70;99.90
43524;DHT22;29120;52.006;6.020;2023-02-19T00:35:16;10.70;99.90
43524;DHT22;29120;52.006;6.020;2023-02-19T00:37:42;10.70;99.90
43524;DHT22;29120;52.006;6.020;2023-02-19T00:40:07;10.70;99.90
43524;DHT22;29120;52.006;6.020;2023-02-19T00:42:33;10.60;99.90
43524;DHT22;29120;52.006;6.020;2023-02-19T00:44:58;10.70;99.90
43524;DHT22;29120;52.006;6.020;2023-02-19T00:47:24;10.70;99.90
43524;DHT22;29120;52.006;6.020;2023-02-19T00:49:49;10.70;99.90
43524;DHT22;29120;52.006;6.020;2023-02-19T00:52:15;10.70;99.90
43524;DHT22;29120;52.006;6.020;2023-02-19T00:54:40;10.70;99.90
43524;DHT22;29120;52.006;6.020;2023-02-19T00:57:06;10.70;99.90
43524;DHT22;29120;52.006;6.020;2023-02-19T00:59:31;10.70;99.90
43524;DHT22;29120;52.006;6.020;2023-02-19T01:01:57;10.70;99.90
43524;DHT22;29120;52.006;6.020;2023-02-19T01:04:22;10.70;99.90
43524;DHT22;29120;52.006;6.020;2023-02-19T01:06:47;10.70;99.90
43524;DHT22;29120;52.006;6.020;2023-02-19T01:09:13;10.70;99.90
43524;DHT22;29120;52.006;6.020;2023-02-19T01:11:38;10.70;99.90
43524;DHT22;29120;52.006;6.020;2023-02-19T01:14:04;10.70;99.90
43524;DHT22;29120;52.006;6.020;2023-02-19T01:16:29;10.70;99.90
43524;DHT22;29120;52.006;6.020;2023-02-19T01:18:55;10.60;99.90
43524;DHT22;29120;52.006;6.020;2023-02-19T01:21:22;10.60;99.90
43524;DHT22;29120;52.006;6.020;2023-02-19T01:23:48;10.60;99.90
43524;DHT22;29120;52.006;6.020;2023-02-19T01:26:15;10.60;99.90
43524;DHT22;29120;52.006;6.020;2023-02-19T01:28:41;10.60;99.90
43524;DHT22;29120;52.006;6.020;2023-02-19T01:31:07;10.60;99.90
43524;DHT22;29120;52.006;6.020;2023-02-19T01:33:35;10.60;99.90
43524;DHT22;29120;52.006;6.020;2023-02-19T01:36:04;10.60;99.90
43524;DHT22;29120;52.006;6.020;2023-02-19T01:38:30;10.60;99.90
43524;DHT22;29120;52.006;6.020;2023-02-19T01:40:56;10.60;99.90
43524;DHT22;29120;52.006;6.020;2023-02-19T01:43:22;10.60;99.90
43524;DHT22;29120;52.006;6.020;2023-02-19T01:45:48;10.60;99.90
43524;DHT22;29120;52.006;6.020;2023-02-19T01:50:49;10.60;99.90
43524;DHT22;29120;52.006;6.020;2023-02-19T01:53:16;10.60;99.90
43524;DHT22;29120;52.006;6.020;2023-02-19T01:55:43;10.60;99.90
43524;DHT22;29120;52.006;6.020;2023-02-19T01:58:10;10.60;99.90
43524;DHT22;29120;52.006;6.020;2023-02-19T02:00:36;10.60;99.90
43524;DHT22;29120;52.006;6.020;2023-02-19T02:03:02;10.60;99.90
43524;DHT22;29120;52.006;6.020;2023-02-19T02:08:05;10.60;99.90
43524;DHT22;29120;52.006;6.020;2023-02-19T02:10:49;10.60;99.90
43524;DHT22;29120;52.006;6.020;2023-02-19T02:13:15;10.60;99.90
43524;DHT22;29120;52.006;6.020;2023-02-19T02:15:43;10.50;99.90
43524;DHT22;29120;52.006;6.020;2023-02-19T02:23:45;10.60;99.90
43524;DHT22;29120;52.006;6.020;2023-02-19T02:26:21;10.60;99.90
43524;DHT22;29120;52.006;6.020;2023-02-19T02:29:01;10.50;99.90
43524;DHT22;29120;52.006;6.020;2023-02-19T02:31:38;10.50;99.90
43524;DHT22;29120;52.006;6.020;2023-02-19T02:34:06;10.50;99.90
43524;DHT22;29120;52.006;6.020;2023-02-19T02:36:37;10.50;99.90
43524;DHT22;29120;52.006;6.020;2023-02-19T02:39:03;10.50;99.90
43524;DHT22;29120;52.006;6.020;2023-02-19T02:41:31;10.50;99.90
43524;DHT22;29120;52.006;6.020;2023-02-19T02:43:57;10.50;99.90
43524;DHT22;29120;52.006;6.020;2023-02-19T02:46:25;10.50;99.90
43524;DHT22;29120;52.006;6.020;2023-02-19T02:48:52;10.50;99.90
43524;DHT22;29120;52.006;6.020;2023-02-19T02:54:01;10.50;99.90
43524;DHT22;29120;52.006;6.020;2023-02-19T02:56:46;10.40;99.90
43524;DHT22;29120;52.006;6.020;2023-02-19T02:59:13;10.50;99.90
43524;DHT22;29120;52.006;6.020;2023-02-19T03:01:44;10.40;99.90
43524;DHT22;29120;52.006;6.020;2023-02-19T03:07:43;10.40;99.90
43524;DHT22;29120;52.006;6.020;2023-02-19T03:10:11;10.40;99.90
43524;DHT22;29120;52.006;6.020;2023-02-19T03:12:37;10.40;99.90
43524;DHT22;29120;52.006;6.020;2023-02-19T03:15:23;10.40;99.90
43524;DHT22;29120;52.006;6.020;2023-02-19T03:18:11;10.40;99.90
43524;DHT22;29120;52.006;6.020;2023-02-19T03:20:56;10.40;99.90
43524;DHT22;29120;52.006;6.020;2023-02-19T03:23:22;10.40;99.90
43524;DHT22;29120;52.006;6.020;2023-02-19T03:26:10;10.40;99.90
43524;DHT22;29120;52.006;6.020;2023-02-19T03:28:36;10.40;99.90
43524;DHT22;29120;52.006;6.020;2023-02-19T03:31:22;10.40;99.90
43524;DHT22;29120;52.006;6.020;2023-02-19T03:33:51;10.40;99.90
43524;DHT22;29120;52.006;6.020;2023-02-19T03:36:18;10.40;99.90
43524;DHT22;29120;52.006;6.020;2023-02-19T03:38:51;10.40;99.90
43524;DHT22;29120;52.006;6.020;2023-02-19T03:44:12;10.40;99.90
43524;DHT22;29120;52.006;6.020;2023-02-19T03:46:56;10.40;99.90
43524;DHT22;29120;52.006;6.020;2023-02-19T03:51:55;10.40;99.90
43524;DHT22;29120;52.006;6.020;2023-02-19T03:54:29;10.40;99.90
43524;DHT22;29120;52.006;6.020;2023-02-19T03:56:59;10.40;99.90
43524;DHT22;29120;52.006;6.020;2023-02-19T03:59:31;10.40;99.90
43524;DHT22;29120;52.006;6.020;2023-02-19T04:01:59;10.40;99.90
43524;DHT22;29120;52.006;6.020;2023-02-19T04:04:27;10.40;99.90
43524;DHT22;29120;52.006;6.020;2023-02-19T04:06:54;10.40;99.90
43524;DHT22;29120;52.006;6.020;2023-02-19T04:09:20;10.40;99.90
43524;DHT22;29120;52.006;6.020;2023-02-19T04:11:46;10.40;99.90
43524;DHT22;29120;52.006;6.020;2023-02-19T04:14:26;10.40;99.90
43524;DHT22;29120;52.006;6.020;2023-02-19T04:16:58;10.40;99.90
43524;DHT22;29120;52.006;6.020;2023-02-19T04:19:25;10.40;99.90
43524;DHT22;29120;52.006;6.020;2023-02-19T04:21:52;10.40;99.90
43524;DHT22;29120;52.006;6.020;2023-02-19T04:24:22;10.40;99.90
43524;DHT22;29120;52.006;6.020;2023-02-19T04:26:49;10.30;99.90
43524;DHT22;29120;52.006;6.020;2023-02-19T04:29:14;10.30;99.90
43524;DHT22;29120;52.006;6.020;2023-02-19T04:31:40;10.30;99.90
43524;DHT22;29120;52.006;6.020;2023-02-19T04:34:05;10.30;99.90
43524;DHT22;29120;52.006;6.020;2023-02-19T04:36:31;10.30;99.90
43524;DHT22;29120;52.006;6.020;2023-02-19T04:38:57;10.30;99.90
43524;DHT22;29120;52.006;6.020;2023-02-19T04:41:22;10.40;99.90
43524;DHT22;29120;52.006;6.020;2023-02-19T04:43:48;10.30;99.90
43524;DHT22;29120;52.006;6.020;2023-02-19T04:46:13;10.30;99.90
43524;DHT22;29120;52.006;6.020;2023-02-19T04:48:39;10.30;99.90
43524;DHT22;29120;52.006;6.020;2023-02-19T04:51:05;10.30;99.90
43524;DHT22;29120;52.006;6.020;2023-02-19T04:53:31;10.30;99.90
43524;DHT22;29120;52.006;6.020;2023-02-19T04:55:56;10.30;99.90
43524;DHT22;29120;52.006;6.020;2023-02-19T04:58:21;10.30;99.90
43524;DHT22;29120;52.006;6.020;2023-02-19T05:00:50;10.30;99.90
43524;DHT22;29120;52.006;6.020;2023-02-19T05:03:15;10.20;99.90
43524;DHT22;29120;52.006;6.020;2023-02-19T05:05:41;10.20;99.90
43524;DHT22;29120;52.006;6.020;2023-02-19T05:08:06;10.20;99.90
43524;DHT22;29120;52.006;6.020;2023-02-19T05:10:32;10.20;99.90
43524;DHT22;29120;52.006;6.020;2023-02-19T05:12:57;10.20;99.90
43524;DHT22;29120;52.006;6.020;2023-02-19T05:15:23;10.20;99.90
43524;DHT22;29120;52.006;6.020;2023-02-19T05:17:48;10.20;99.90
43524;DHT22;29120;52.006;6.020;2023-02-19T05:20:14;10.20;99.90
43524;DHT22;29120;52.006;6.020;2023-02-19T05:22:39;10.20;99.90
43524;DHT22;29120;52.006;6.020;2023-02-19T05:25:05;10.20;99.90
43524;DHT22;29120;52.006;6.020;2023-02-19T05:27:30;10.20;99.90
43524;DHT22;29120;52.006;6.020;2023-02-19T05:29:56;10.20;99.90
43524;DHT22;29120;52.006;6.020;2023-02-19T05:32:21;10.20;99.90
43524;DHT22;29120;52.006;6.020;2023-02-19T05:34:47;10.20;99.90
43524;DHT22;29120;52.006;6.020;2023-02-19T05:37:12;10.20;99.90
43524;DHT22;29120;52.006;6.020;2023-02-19T05:39:38;10.20;99.90
43524;DHT22;29120;52.006;6.020;2023-02-19T05:42:03;10.10;99.90
43524;DHT22;29120;52.006;6.020;2023-02-19T05:44:29;10.20;99.90
43524;DHT22;29120;52.006;6.020;2023-02-19T05:46:54;10.20;99.90
43524;DHT22;29120;52.006;6.020;2023-02-19T05:49:20;10.20;99.90
43524;DHT22;29120;52.006;6.020;2023-02-19T05:51:45;10.20;99.90
43524;DHT22;29120;52.006;6.020;2023-02-19T05:54:10;10.20;99.90
43524;DHT22;29120;52.006;6.020;2023-02-19T05:56:37;10.20;99.90
43524;DHT22;29120;52.006;6.020;2023-02-19T05:59:04;10.20;99.90
43524;DHT22;29120;52.006;6.020;2023-02-19T06:01:32;10.20;99.90
43524;DHT22;29120;52.006;6.020;2023-02-19T06:03:58;10.20;99.90
43524;DHT22;29120;52.006;6.020;2023-02-19T06:06:23;10.10;99.90
43524;DHT22;29120;52.006;6.020;2023-02-19T06:08:49;10.20;99.90
43524;DHT22;29120;52.006;6.020;2023-02-19T06:11:15;10.20;99.90
43524;DHT22;29120;52.006;6.020;2023-02-19T06:13:41;10.20;99.90
43524;DHT22;29120;52.006;6.020;2023-02-19T06:16:06;10.20;99.90
43524;DHT22;29120;52.006;6.020;2023-02-19T06:18:32;10.20;99.90
43524;DHT22;29120;52.006;6.020;2023-02-19T06:21:04;10.10;99.90
43524;DHT22;29120;52.006;6.020;2023-02-19T06:23:30;10.20;99.90
43524;DHT22;29120;52.006;6.020;2023-02-19T06:26:10;10.20;99.90
43524;DHT22;29120;52.006;6.020;2023-02-19T06:28:35;10.10;99.90
43524;DHT22;29120;52.006;6.020;2023-02-19T06:31:01;10.10;99.90
43524;DHT22;29120;52.006;6.020;2023-02-19T06:33:27;10.10;99.90
43524;DHT22;29120;52.006;6.020;2023-02-19T06:35:52;10.10;99.90
43524;DHT22;29120;52.006;6.020;2023-02-19T06:38:20;10.10;99.90
43524;DHT22;29120;52.006;6.020;2023-02-19T06:40:45;10.10;99.90
43524;DHT22;29120;52.006;6.020;2023-02-19T06:43:11;10.00;99.90
43524;DHT22;29120;52.006;6.020;2023-02-19T06:45:36;10.00;99.90
43524;DHT22;29120;52.006;6.020;2023-02-19T06:48:02;10.00;99.90
43524;DHT22;29120;52.006;6.020;2023-02-19T06:50:27;10.00;99.90
43524;DHT22;29120;52.006;6.020;2023-02-19T06:52:52;10.00;99.90
43524;DHT22;29120;52.006;6.020;2023-02-19T06:55:18;10.00;99.90
43524;DHT22;29120;52.006;6.020;2023-02-19T06:57:43;10.00;99.90
43524;DHT22;29120;52.006;6.020;2023-02-19T07:00:09;10.00;99.90
43524;DHT22;29120;52.006;6.020;2023-02-19T07:02:35;10.10;99.90
43524;DHT22;29120;52.006;6.020;2023-02-19T07:05:00;10.00;99.90
43524;DHT22;29120;52.006;6.020;2023-02-19T07:07:25;10.00;99.90
43524;DHT22;29120;52.006;6.020;2023-02-19T07:09:51;10.00;99.90
43524;DHT22;29120;52.006;6.020;2023-02-19T07:12:16;10.10;99.90
43524;DHT22;29120;52.006;6.020;2023-02-19T07:14:42;10.10;99.90
43524;DHT22;29120;52.006;6.020;2023-02-19T07:17:07;10.10;99.90
43524;DHT22;29120;52.006;6.020;2023-02-19T07:19:33;10.10;99.90
43524;DHT22;29120;52.006;6.020;2023-02-19T07:21:58;10.10;99.90
43524;DHT22;29120;52.006;6.020;2023-02-19T07:24:24;10.10;99.90
43524;DHT22;29120;52.006;6.020;2023-02-19T07:26:49;10.10;99.90
43524;DHT22;29120;52.006;6.020;2023-02-19T07:29:15;10.10;99.90
43524;DHT22;29120;52.006;6.020;2023-02-19T07:31:41;10.20;99.90
43524;DHT22;29120;52.006;6.020;2023-02-19T07:34:06;10.10;99.90
43524;DHT22;29120;52.006;6.020;2023-02-19T07:36:32;10.10;99.90
43524;DHT22;29120;52.006;6.020;2023-02-19T07:38:58;10.10;99.90
43524;DHT22;29120;52.006;6.020;2023-02-19T07:41:24;10.10;99.90
43524;DHT22;29120;52.006;6.020;2023-02-19T07:43:49;10.10;99.90
43524;DHT22;29120;52.006;6.020;2023-02-19T07:46:15;10.00;99.90
43524;DHT22;29120;52.006;6.020;2023-02-19T07:48:41;10.00;99.90
43524;DHT22;29120;52.006;6.020;2023-02-19T07:51:07;10.10;99.90
43524;DHT22;29120;52.006;6.020;2023-02-19T07:53:34;10.00;99.90
43524;DHT22;29120;52.006;6.020;2023-02-19T07:56:01;10.00;99.90
43524;DHT22;29120;52.006;6.020;2023-02-19T07:58:27;10.10;99.90
43524;DHT22;29120;52.006;6.020;2023-02-19T08:00:52;10.10;99.90
43524;DHT22;29120;52.006;6.020;2023-02-19T08:03:18;10.20;99.90
43524;DHT22;29120;52.006;6.020;2023-02-19T08:05:43;10.20;99.90
43524;DHT22;29120;52.006;6.020;2023-02-19T08:08:10;10.20;99.90
43524;DHT22;29120;52.006;6.020;2023-02-19T08:10:36;10.20;99.90
43524;DHT22;29120;52.006;6.020;2023-02-19T08:13:20;10.20;99.90
43524;DHT22;29120;52.006;6.020;2023-02-19T08:18:28;10.20;99.90
43524;DHT22;29120;52.006;6.020;2023-02-19T08:20:54;10.30;99.90
43524;DHT22;29120;52.006;6.020;2023-02-19T08:23:20;10.40;99.90
43524;DHT22;29120;52.006;6.020;2023-02-19T08:25:46;10.40;99.90
43524;DHT22;29120;52.006;6.020;2023-02-19T08:28:11;10.50;99.90
43524;DHT22;29120;52.006;6.020;2023-02-19T08:30:37;10.60;99.90
43524;DHT22;29120;52.006;6.020;2023-02-19T08:33:03;10.60;99.90
43524;DHT22;29120;52.006;6.020;2023-02-19T08:35:29;10.70;99.90
43524;DHT22;29120;52.006;6.020;2023-02-19T08:37:55;10.80;99.90
43524;DHT22;29120;52.006;6.020;2023-02-19T08:40:21;10.80;99.90
43524;DHT22;29120;52.006;6.020;2023-02-19T08:42:47;10.80;99.90
43524;DHT22;29120;52.006;6.020;2023-02-19T08:45:12;10.80;99.90
43524;DHT22;29120;52.006;6.020;2023-02-19T08:47:38;10.80;99.90
43524;DHT22;29120;52.006;6.020;2023-02-19T08:50:04;10.80;99.90
43524;DHT22;29120;52.006;6.020;2023-02-19T08:52:30;10.70;99.90
43524;DHT22;29120;52.006;6.020;2023-02-19T08:54:56;10.80;99.90
43524;DHT22;29120;52.006;6.020;2023-02-19T08:57:22;10.80;99.90
43524;DHT22;29120;52.006;6.020;2023-02-19T08:59:48;10.80;99.90
43524;DHT22;29120;52.006;6.020;2023-02-19T09:02:13;10.90;99.90
43524;DHT22;29120;52.006;6.020;2023-02-19T09:04:39;11.00;99.90
43524;DHT22;29120;52.006;6.020;2023-02-19T09:07:04;10.90;99.90
43524;DHT22;29120;52.006;6.020;2023-02-19T09:09:32;10.90;99.90
43524;DHT22;29120;52.006;6.020;2023-02-19T09:11:58;10.90;99.90
43524;DHT22;29120;52.006;6.020;2023-02-19T09:14:23;10.80;99.90
43524;DHT22;29120;52.006;6.020;2023-02-19T09:16:49;10.80;99.90
43524;DHT22;29120;52.006;6.020;2023-02-19T09:19:14;10.80;99.90
43524;DHT22;29120;52.006;6.020;2023-02-19T09:21:41;10.70;99.90
43524;DHT22;29120;52.006;6.020;2023-02-19T09:24:07;10.70;99.90
43524;DHT22;29120;52.006;6.020;2023-02-19T09:26:33;10.70;99.90
43524;DHT22;29120;52.006;6.020;2023-02-19T09:28:59;10.70;99.90
43524;DHT22;29120;52.006;6.020;2023-02-19T09:31:24;10.70;99.90
43524;DHT22;29120;52.006;6.020;2023-02-19T09:33:49;10.70;99.90
43524;DHT22;29120;52.006;6.020;2023-02-19T09:36:15;10.80;99.90
43524;DHT22;29120;52.006;6.020;2023-02-19T09:38:41;10.80;99.90
43524;DHT22;29120;52.006;6.020;2023-02-19T09:41:07;10.80;99.90
43524;DHT22;29120;52.006;6.020;2023-02-19T09:43:33;10.80;99.90
43524;DHT22;29120;52.006;6.020;2023-02-19T09:46:01;10.90;99.90
43524;DHT22;29120;52.006;6.020;2023-02-19T09:48:27;11.10;99.90
43524;DHT22;29120;52.006;6.020;2023-02-19T09:50:52;11.20;99.90
43524;DHT22;29120;52.006;6.020;2023-02-19T09:53:20;11.20;99.90
43524;DHT22;29120;52.006;6.020;2023-02-19T09:55:46;11.00;99.90
43524;DHT22;29120;52.006;6.020;2023-02-19T09:58:22;11.00;99.90
43524;DHT22;29120;52.006;6.020;2023-02-19T10:00:50;11.20;99.90
43524;DHT22;29120;52.006;6.020;2023-02-19T10:03:21;11.60;99.90
43524;DHT22;29120;52.006;6.020;2023-02-19T10:05:47;12.30;99.90
43524;DHT22;29120;52.006;6.020;2023-02-19T10:08:14;12.70;99.90
43524;DHT22;29120;52.006;6.020;2023-02-19T10:10:42;12.80;99.90
43524;DHT22;29120;52.006;6.020;2023-02-19T10:13:18;12.60;99.90
43524;DHT22;29120;52.006;6.020;2023-02-19T10:15:51;12.30;99.90
43524;DHT22;29120;52.006;6.020;2023-02-19T10:18:17;12.10;99.90
43524;DHT22;29120;52.006;6.020;2023-02-19T10:20:43;12.00;99.90
43524;DHT22;29120;52.006;6.020;2023-02-19T10:23:09;11.90;99.90
43524;DHT22;29120;52.006;6.020;2023-02-19T10:25:38;11.80;99.90
43524;DHT22;29120;52.006;6.020;2023-02-19T10:28:05;11.70;99.90
43524;DHT22;29120;52.006;6.020;2023-02-19T10:30:34;11.70;99.90
43524;DHT22;29120;52.006;6.020;2023-02-19T10:33:04;11.60;99.90
43524;DHT22;29120;52.006;6.020;2023-02-19T10:35:52;11.60;99.90
43524;DHT22;29120;52.006;6.020;2023-02-19T10:38:19;11.50;99.90
43524;DHT22;29120;52.006;6.020;2023-02-19T10:40:47;11.40;99.90
43524;DHT22;29120;52.006;6.020;2023-02-19T10:43:19;11.30;99.90
43524;DHT22;29120;52.006;6.020;2023-02-19T10:45:47;11.40;99.90
43524;DHT22;29120;52.006;6.020;2023-02-19T10:48:33;11.50;99.90
43524;DHT22;29120;52.006;6.020;2023-02-19T10:51:00;11.50;99.90
43524;DHT22;29120;52.006;6.020;2023-02-19T10:53:43;11.50;99.90
43524;DHT22;29120;52.006;6.020;2023-02-19T10:56:21;11.50;99.90
43524;DHT22;29120;52.006;6.020;2023-02-19T10:58:47;11.50;99.90
43524;DHT22;29120;52.006;6.020;2023-02-19T11:03:38;11.50;99.90
43524;DHT22;29120;52.006;6.020;2023-02-19T11:06:04;11.40;99.90
43524;DHT22;29120;52.006;6.020;2023-02-19T11:08:35;11.30;99.90
43524;DHT22;29120;52.006;6.020;2023-02-19T11:11:04;11.20;99.90
43524;DHT22;29120;52.006;6.020;2023-02-19T11:13:31;11.10;99.90
43524;DHT22;29120;52.006;6.020;2023-02-19T11:15:57;11.10;99.90
43524;DHT22;29120;52.006;6.020;2023-02-19T11:18:32;11.10;99.90
43524;DHT22;29120;52.006;6.020;2023-02-19T11:21:04;11.10;99.90
43524;DHT22;29120;52.006;6.020;2023-02-19T11:23:34;11.10;99.90
43524;DHT22;29120;52.006;6.020;2023-02-19T11:26:02;11.10;99.90
43524;DHT22;29120;52.006;6.020;2023-02-19T11:28:32;11.00;99.90
43524;DHT22;29120;52.006;6.020;2023-02-19T11:33:53;10.90;99.90
43524;DHT22;29120;52.006;6.020;2023-02-19T11:38:45;11.00;99.90
43524;DHT22;29120;52.006;6.020;2023-02-19T11:51:40;10.90;99.90
43524;DHT22;29120;52.006;6.020;2023-02-19T11:56:33;10.80;99.90
43524;DHT22;29120;52.006;6.020;2023-02-19T11:59:01;10.80;99.90
43524;DHT22;29120;52.006;6.020;2023-02-19T12:09:36;10.80;99.90
43524;DHT22;29120;52.006;6.020;2023-02-19T12:24:46;10.80;99.90
43524;DHT22;29120;52.006;6.020;2023-02-19T12:35:33;10.60;99.90
43524;DHT22;29120;52.006;6.020;2023-02-19T12:38:04;10.50;99.90
43524;DHT22;29120;52.006;6.020;2023-02-19T12:43:12;10.50;99.90
43524;DHT22;29120;52.006;6.020;2023-02-19T12:45:43;10.50;99.90
43524;DHT22;29120;52.006;6.020;2023-02-19T12:48:12;10.50;99.90
43524;DHT22;29120;52.006;6.020;2023-02-19T12:50:39;10.50;99.90
43524;DHT22;29120;52.006;6.020;2023-02-19T12:53:10;10.50;99.90
43524;DHT22;29120;52.006;6.020;2023-02-19T12:55:38;10.50;99.90
43524;DHT22;29120;52.006;6.020;2023-02-19T12:58:05;10.60;99.90
43524;DHT22;29120;52.006;6.020;2023-02-19T13:05:48;10.70;99.90
43524;DHT22;29120;52.006;6.020;2023-02-19T13:08:35;10.70;99.90
43524;DHT22;29120;52.006;6.020;2023-02-19T13:13:58;10.80;99.90
43524;DHT22;29120;52.006;6.020;2023-02-19T13:16:25;10.80;99.90
43524;DHT22;29120;52.006;6.020;2023-02-19T13:19:00;10.70;99.90
43524;DHT22;29120;52.006;6.020;2023-02-19T13:21:27;10.70;99.90
43524;DHT22;29120;52.006;6.020;2023-02-19T13:24:19;10.70;99.90
43524;DHT22;29120;52.006;6.020;2023-02-19T13:32:15;10.60;99.90
43524;DHT22;29120;52.006;6.020;2023-02-19T13:37:18;10.60;99.90
43524;DHT22;29120;52.006;6.020;2023-02-19T13:39:45;10.60;99.90
43524;DHT22;29120;52.006;6.020;2023-02-19T13:42:24;10.60;99.90
43524;DHT22;29120;52.006;6.020;2023-02-19T13:44:50;10.50;99.90
43524;DHT22;29120;52.006;6.020;2023-02-19T13:50:05;10.40;99.90
43524;DHT22;29120;52.006;6.020;2023-02-19T13:52:35;10.40;99.90
43524;DHT22;29120;52.006;6.020;2023-02-19T13:57:46;10.30;99.90
43524;DHT22;29120;52.006;6.020;2023-02-19T14:00:46;10.30;99.90
43524;DHT22;29120;52.006;6.020;2023-02-19T14:03:28;10.20;99.90
43524;DHT22;29120;52.006;6.020;2023-02-19T14:06:01;10.20;99.90
43524;DHT22;29120;52.006;6.020;2023-02-19T14:09:37;10.10;99.90
43524;DHT22;29120;52.006;6.020;2023-02-19T14:11:17;10.20;99.90
43524;DHT22;29120;52.006;6.020;2023-02-19T14:18:52;10.20;99.90
43524;DHT22;29120;52.006;6.020;2023-02-19T14:21:33;10.10;99.90
43524;DHT22;29120;52.006;6.020;2023-02-19T14:23:59;10.00;99.90
43524;DHT22;29120;52.006;6.020;2023-02-19T14:26:24;10.00;99.90
43524;DHT22;29120;52.006;6.020;2023-02-19T14:28:50;10.00;99.90
43524;DHT22;29120;52.006;6.020;2023-02-19T14:33:46;10.10;99.90
43524;DHT22;29120;52.006;6.020;2023-02-19T14:36:15;10.00;99.90
43524;DHT22;29120;52.006;6.020;2023-02-19T14:38:46;9.90;99.90
43524;DHT22;29120;52.006;6.020;2023-02-19T14:41:14;9.90;99.90
43524;DHT22;29120;52.006;6.020;2023-02-19T14:43:40;9.80;99.90
43524;DHT22;29120;52.006;6.020;2023-02-19T14:46:07;9.80;99.90
43524;DHT22;29120;52.006;6.020;2023-02-19T14:48:34;9.80;99.90
43524;DHT22;29120;52.006;6.020;2023-02-19T14:51:10;9.90;99.90
43524;DHT22;29120;52.006;6.020;2023-02-19T14:53:37;9.90;99.90
43524;DHT22;29120;52.006;6.020;2023-02-19T14:56:03;9.90;99.90
43524;DHT22;29120;52.006;6.020;2023-02-19T14:58:31;9.90;99.90
43524;DHT22;29120;52.006;6.020;2023-02-19T15:00:58;9.80;99.90
43524;DHT22;29120;52.006;6.020;2023-02-19T15:03:25;9.70;99.90
43524;DHT22;29120;52.006;6.020;2023-02-19T15:05:58;9.70;99.90
43524;DHT22;29120;52.006;6.020;2023-02-19T15:08:58;9.70;99.90
43524;DHT22;29120;52.006;6.020;2023-02-19T15:11:18;9.70;99.90
43524;DHT22;29120;52.006;6.020;2023-02-19T15:13:55;9.70;99.90
43524;DHT22;29120;52.006;6.020;2023-02-19T15:16:22;9.80;99.90
43524;DHT22;29120;52.006;6.020;2023-02-19T15:18:49;9.80;99.90
43524;DHT22;29120;52.006;6.020;2023-02-19T15:21:26;9.80;99.90
43524;DHT22;29120;52.006;6.020;2023-02-19T15:23:53;9.80;99.90
43524;DHT22;29120;52.006;6.020;2023-02-19T15:26:24;9.80;99.90
43524;DHT22;29120;52.006;6.020;2023-02-19T15:29:02;9.80;99.90
43524;DHT22;29120;52.006;6.020;2023-02-19T15:31:28;9.70;99.90
43524;DHT22;29120;52.006;6.020;2023-02-19T15:33:53;9.70;99.90
43524;DHT22;29120;52.006;6.020;2023-02-19T15:36:21;9.70;99.90
43524;DHT22;29120;52.006;6.020;2023-02-19T15:38:55;9.70;99.90
43524;DHT22;29120;52.006;6.020;2023-02-19T15:41:22;9.70;99.90
43524;DHT22;29120;52.006;6.020;2023-02-19T15:43:51;9.80;99.90
43524;DHT22;29120;52.006;6.020;2023-02-19T15:46:21;9.80;99.90
43524;DHT22;29120;52.006;6.020;2023-02-19T15:48:49;9.80;99.90
43524;DHT22;29120;52.006;6.020;2023-02-19T15:51:21;9.80;99.90
43524;DHT22;29120;52.006;6.020;2023-02-19T15:53:54;9.80;99.90
43524;DHT22;29120;52.006;6.020;2023-02-19T15:56:29;9.80;99.90
43524;DHT22;29120;52.006;6.020;2023-02-19T15:58:58;9.80;99.90
43524;DHT22;29120;52.006;6.020;2023-02-19T16:01:28;9.80;99.90
43524;DHT22;29120;52.006;6.020;2023-02-19T16:03:54;9.70;99.90
43524;DHT22;29120;52.006;6.020;2023-02-19T16:06:20;9.70;99.90
43524;DHT22;29120;52.006;6.020;2023-02-19T16:09:02;9.70;99.90
43524;DHT22;29120;52.006;6.020;2023-02-19T16:16:41;9.60;99.90
43524;DHT22;29120;52.006;6.020;2023-02-19T16:19:07;9.60;99.90
43524;DHT22;29120;52.006;6.020;2023-02-19T16:21:33;9.60;99.90
43524;DHT22;29120;52.006;6.020;2023-02-19T16:24:04;9.60;99.90
43524;DHT22;29120;52.006;6.020;2023-02-19T16:26:37;9.50;99.90
43524;DHT22;29120;52.006;6.020;2023-02-19T16:29:10;9.50;99.90
43524;DHT22;29120;52.006;6.020;2023-02-19T16:31:45;9.50;99.90
43524;DHT22;29120;52.006;6.020;2023-02-19T16:34:15;9.50;99.90
43524;DHT22;29120;52.006;6.020;2023-02-19T16:36:40;9.50;99.90
43524;DHT22;29120;52.006;6.020;2023-02-19T16:41:52;9.40;99.90
43524;DHT22;29120;52.006;6.020;2023-02-19T16:46:57;9.40;99.90
43524;DHT22;29120;52.006;6.020;2023-02-19T16:49:25;9.30;99.90
43524;DHT22;29120;52.006;6.020;2023-02-19T16:51:50;9.30;99.90
43524;DHT22;29120;52.006;6.020;2023-02-19T16:54:16;9.30;99.90
43524;DHT22;29120;52.006;6.020;2023-02-19T16:56:42;9.20;99.90
43524;DHT22;29120;52.006;6.020;2023-02-19T16:59:07;9.20;99.90
43524;DHT22;29120;52.006;6.020;2023-02-19T17:01:36;9.10;99.90
43524;DHT22;29120;52.006;6.020;2023-02-19T17:04:03;9.10;99.90
43524;DHT22;29120;52.006;6.020;2023-02-19T17:06:29;9.00;99.90
43524;DHT22;29120;52.006;6.020;2023-02-19T17:08:56;9.10;99.90
43524;DHT22;29120;52.006;6.020;2023-02-19T17:11:22;9.00;99.90
43524;DHT22;29120;52.006;6.020;2023-02-19T17:13:48;9.00;99.90
43524;DHT22;29120;52.006;6.020;2023-02-19T17:16:17;9.00;99.90
43524;DHT22;29120;52.006;6.020;2023-02-19T17:18:43;9.00;99.90
43524;DHT22;29120;52.006;6.020;2023-02-19T17:23:36;9.00;99.90
43524;DHT22;29120;52.006;6.020;2023-02-19T17:26:02;9.00;99.90
43524;DHT22;29120;52.006;6.020;2023-02-19T17:28:27;9.00;99.90
43524;DHT22;29120;52.006;6.020;2023-02-19T17:30:53;9.00;99.90
43524;DHT22;29120;52.006;6.020;2023-02-19T17:33:18;9.00;99.90
43524;DHT22;29120;52.006;6.020;2023-02-19T17:35:44;9.00;99.90
43524;DHT22;29120;52.006;6.020;2023-02-19T17:38:13;9.00;99.90